AFL2120 UUEE-LTFE
Flight info
| Callsign | AFL2120 |
|---|---|
| Flight time | 5h 29m |
| Altitude | 31000 |
| Route | TOGMO3H TOGMO M56 ABAGI W21 NIMTA/K0833F330 W21 WGD A927 SL DCT LIDUS DCT ZG DCT ITAKA/K0845F340 DCT AMKOL DCT GOTIK DCT MEMZA DCT BINOL G487 ODIRA/N0449F340 UW96 SIN UT61 BAG/N0448F350 UP29 HALIL/N0449F340 UT54 KFK UN136 CRD UW95 KAVAK |
| Aircraft | A321/M-SDE3FGHIRWY/LB1 |
Departure
| Time | 2026-05-07 12:07 |
|---|---|
| Airport | Sheremetyevo International Airport (UUEE) |
Arrival
| Time | 2026-05-07 17:37 |
|---|---|
| Airport | Milas Bodrum International Airport (LTFE) |
| Time | Latitude | Longitude | Altitude | Speed | Heading |
|---|---|---|---|---|---|
| 2026-05-07 11:22 | 55.97628 | 37.40343 | 639 ft | 0 kts | 345° |
| 2026-05-07 12:00 | 55.97652 | 37.40332 | 642 ft | 7 kts | 345° |
| 2026-05-07 12:00 | 55.97697 | 37.40383 | 642 ft | 9 kts | 72° |
| 2026-05-07 12:00 | 55.97710 | 37.40483 | 641 ft | 7 kts | 76° |
| 2026-05-07 12:01 | 55.97701 | 37.40573 | 643 ft | 10 kts | 144° |
| 2026-05-07 12:01 | 55.97632 | 37.40614 | 639 ft | 10 kts | 165° |
| 2026-05-07 12:01 | 55.97590 | 37.40676 | 639 ft | 7 kts | 110° |
| 2026-05-07 12:01 | 55.97595 | 37.40751 | 639 ft | 7 kts | 70° |
| 2026-05-07 12:02 | 55.97603 | 37.40892 | 643 ft | 16 kts | 109° |
| 2026-05-07 12:02 | 55.97604 | 37.41095 | 642 ft | 15 kts | 102° |
| 2026-05-07 12:02 | 55.97547 | 37.41220 | 642 ft | 12 kts | 101° |
| 2026-05-07 12:02 | 55.97566 | 37.41395 | 642 ft | 18 kts | 75° |
| 2026-05-07 12:03 | 55.97603 | 37.41646 | 639 ft | 22 kts | 75° |
| 2026-05-07 12:03 | 55.97642 | 37.41901 | 641 ft | 20 kts | 75° |
| 2026-05-07 12:03 | 55.97678 | 37.42143 | 644 ft | 22 kts | 75° |
| 2026-05-07 12:03 | 55.97720 | 37.42426 | 646 ft | 23 kts | 75° |
| 2026-05-07 12:04 | 55.97758 | 37.42672 | 640 ft | 11 kts | 75° |
| 2026-05-07 12:04 | 55.97750 | 37.42783 | 640 ft | 8 kts | 142° |
| 2026-05-07 12:04 | 55.97729 | 37.42798 | 641 ft | 0 kts | 162° |
| 2026-05-07 12:05 | 55.97713 | 37.42806 | 638 ft | 7 kts | 165° |
| 2026-05-07 12:05 | 55.97640 | 37.42839 | 642 ft | 13 kts | 166° |
| 2026-05-07 12:05 | 55.97596 | 37.42779 | 641 ft | 4 kts | 255° |
| 2026-05-07 12:05 | 55.97596 | 37.42777 | 641 ft | 0 kts | 255° |
| 2026-05-07 12:06 | 55.97562 | 37.42550 | 640 ft | 51 kts | 255° |
| 2026-05-07 12:07 | 55.97414 | 37.41554 | 643 ft | 112 kts | 255° |
| 2026-05-07 12:07 | 55.97261 | 37.40540 | 642 ft | 143 kts | 255° |
| 2026-05-07 12:07 | 55.96974 | 37.38560 | 857 ft | 166 kts | 255° |
| 2026-05-07 12:07 | 55.96666 | 37.36605 | 1649 ft | 159 kts | 256° |
| 2026-05-07 12:08 | 55.96355 | 37.34653 | 2005 ft | 171 kts | 254° |
| 2026-05-07 12:08 | 55.96021 | 37.32515 | 2190 ft | 186 kts | 255° |
| 2026-05-07 12:08 | 55.95665 | 37.30185 | 2370 ft | 203 kts | 255° |
| 2026-05-07 12:08 | 55.95264 | 37.27634 | 2467 ft | 226 kts | 254° |
| 2026-05-07 12:09 | 55.94812 | 37.24833 | 2776 ft | 240 kts | 255° |
| 2026-05-07 12:09 | 55.94344 | 37.21947 | 3411 ft | 244 kts | 253° |
| 2026-05-07 12:09 | 55.93878 | 37.19049 | 4106 ft | 244 kts | 253° |
| 2026-05-07 12:09 | 55.93413 | 37.16108 | 4709 ft | 248 kts | 254° |
| 2026-05-07 12:10 | 55.92943 | 37.13130 | 5321 ft | 250 kts | 254° |
| 2026-05-07 12:10 | 55.92472 | 37.10134 | 5965 ft | 252 kts | 254° |
| 2026-05-07 12:10 | 55.92000 | 37.07116 | 6588 ft | 254 kts | 256° |
| 2026-05-07 12:10 | 55.91826 | 37.03982 | 7152 ft | 257 kts | 272° |
| 2026-05-07 12:11 | 55.92246 | 37.00869 | 7738 ft | 263 kts | 290° |
| 2026-05-07 12:11 | 55.93254 | 36.98109 | 8361 ft | 272 kts | 308° |
| 2026-05-07 12:11 | 55.94756 | 36.95980 | 8988 ft | 278 kts | 319° |
| 2026-05-07 12:11 | 55.96360 | 36.94030 | 9587 ft | 280 kts | 320° |
| 2026-05-07 12:12 | 55.98162 | 36.92554 | 10088 ft | 294 kts | 340° |
| 2026-05-07 12:12 | 56.00248 | 36.92320 | 10551 ft | 310 kts | 3° |
| 2026-05-07 12:12 | 56.02317 | 36.93589 | 11037 ft | 323 kts | 27° |
| 2026-05-07 12:12 | 56.04214 | 36.95792 | 11537 ft | 326 kts | 30° |
| 2026-05-07 12:13 | 56.06140 | 36.98068 | 11789 ft | 340 kts | 30° |
| 2026-05-07 12:13 | 56.08160 | 37.00446 | 12047 ft | 351 kts | 30° |
| 2026-05-07 12:13 | 56.10119 | 37.03129 | 12496 ft | 359 kts | 43° |
| 2026-05-07 12:13 | 56.11691 | 37.06634 | 13005 ft | 364 kts | 58° |
| 2026-05-07 12:14 | 56.12740 | 37.10766 | 13534 ft | 367 kts | 74° |
| 2026-05-07 12:14 | 56.13379 | 37.15201 | 13997 ft | 369 kts | 77° |
| 2026-05-07 12:14 | 56.14007 | 37.19676 | 14470 ft | 371 kts | 77° |
| 2026-05-07 12:14 | 56.14507 | 37.24222 | 14913 ft | 372 kts | 89° |
| 2026-05-07 12:15 | 56.14305 | 37.28814 | 15348 ft | 369 kts | 108° |
| 2026-05-07 12:15 | 56.13328 | 37.33132 | 15776 ft | 363 kts | 126° |
| 2026-05-07 12:15 | 56.11752 | 37.36587 | 16223 ft | 356 kts | 143° |
| 2026-05-07 12:15 | 56.09730 | 37.39067 | 16657 ft | 350 kts | 159° |
| 2026-05-07 12:16 | 56.07529 | 37.40924 | 17097 ft | 351 kts | 160° |
| 2026-05-07 12:16 | 56.05303 | 37.42782 | 17547 ft | 354 kts | 160° |
| 2026-05-07 12:16 | 56.03065 | 37.44643 | 17991 ft | 356 kts | 160° |
| 2026-05-07 12:16 | 56.00803 | 37.46531 | 18400 ft | 359 kts | 160° |
| 2026-05-07 12:17 | 55.98542 | 37.48435 | 18792 ft | 362 kts | 158° |
| 2026-05-07 12:17 | 55.96431 | 37.50942 | 19182 ft | 370 kts | 143° |
| 2026-05-07 12:17 | 55.94698 | 37.54396 | 19560 ft | 380 kts | 127° |
| 2026-05-07 12:17 | 55.93483 | 37.58630 | 19927 ft | 388 kts | 111° |
| 2026-05-07 12:18 | 55.92846 | 37.63331 | 20289 ft | 393 kts | 103° |
| 2026-05-07 12:18 | 55.92323 | 37.68198 | 20642 ft | 395 kts | 103° |
| 2026-05-07 12:18 | 55.91710 | 37.72974 | 21048 ft | 394 kts | 111° |
| 2026-05-07 12:18 | 55.90659 | 37.77459 | 21423 ft | 392 kts | 122° |
| 2026-05-07 12:19 | 55.89322 | 37.81691 | 21795 ft | 393 kts | 123° |
| 2026-05-07 12:19 | 55.87978 | 37.85943 | 22153 ft | 395 kts | 122° |
| 2026-05-07 12:19 | 55.86633 | 37.90221 | 22516 ft | 397 kts | 122° |
| 2026-05-07 12:19 | 55.85253 | 37.94479 | 22856 ft | 397 kts | 129° |
| 2026-05-07 12:20 | 55.83429 | 37.98094 | 23180 ft | 391 kts | 146° |
| 2026-05-07 12:20 | 55.81140 | 38.00596 | 23471 ft | 384 kts | 162° |
| 2026-05-07 12:20 | 55.78592 | 38.01813 | 23715 ft | 378 kts | 179° |
| 2026-05-07 12:20 | 55.75992 | 38.01720 | 23957 ft | 372 kts | 194° |
| 2026-05-07 12:21 | 55.73536 | 38.00408 | 24195 ft | 368 kts | 209° |
| 2026-05-07 12:21 | 55.71380 | 37.98034 | 24429 ft | 364 kts | 223° |
| 2026-05-07 12:21 | 55.69557 | 37.94918 | 24674 ft | 365 kts | 227° |
| 2026-05-07 12:21 | 55.67698 | 37.91829 | 24913 ft | 369 kts | 220° |
| 2026-05-07 12:22 | 55.65500 | 37.89437 | 25170 ft | 375 kts | 207° |
| 2026-05-07 12:22 | 55.63001 | 37.87984 | 25367 ft | 384 kts | 194° |
| 2026-05-07 12:22 | 55.60304 | 37.87594 | 25482 ft | 395 kts | 180° |
| 2026-05-07 12:22 | 55.57543 | 37.88030 | 25612 ft | 402 kts | 178° |
| 2026-05-07 12:23 | 55.54736 | 37.88513 | 25745 ft | 407 kts | 178° |
| 2026-05-07 12:23 | 55.51907 | 37.88991 | 25892 ft | 412 kts | 178° |
| 2026-05-07 12:23 | 55.49038 | 37.89470 | 26021 ft | 417 kts | 178° |
| 2026-05-07 12:23 | 55.46130 | 37.89950 | 26150 ft | 422 kts | 178° |
| 2026-05-07 12:24 | 55.43191 | 37.90445 | 26278 ft | 427 kts | 176° |
| 2026-05-07 12:24 | 55.40249 | 37.91478 | 26403 ft | 436 kts | 167° |
| 2026-05-07 12:24 | 55.37343 | 37.93375 | 26534 ft | 444 kts | 157° |
| 2026-05-07 12:24 | 55.34637 | 37.96078 | 26664 ft | 452 kts | 148° |
| 2026-05-07 12:25 | 55.32030 | 37.99200 | 26793 ft | 456 kts | 148° |
| 2026-05-07 12:25 | 55.29390 | 38.02330 | 26927 ft | 460 kts | 149° |
| 2026-05-07 12:25 | 55.26719 | 38.05463 | 27027 ft | 464 kts | 148° |
| 2026-05-07 12:25 | 55.24062 | 38.08566 | 27161 ft | 467 kts | 148° |
| 2026-05-07 12:26 | 55.21314 | 38.11770 | 27293 ft | 470 kts | 148° |
| 2026-05-07 12:26 | 55.18540 | 38.14999 | 27466 ft | 473 kts | 148° |
| 2026-05-07 12:26 | 55.15800 | 38.18191 | 27735 ft | 473 kts | 148° |
| 2026-05-07 12:26 | 55.13064 | 38.21377 | 28042 ft | 472 kts | 148° |
| 2026-05-07 12:27 | 55.10330 | 38.24557 | 28333 ft | 472 kts | 148° |
| 2026-05-07 12:27 | 55.07602 | 38.27728 | 28606 ft | 472 kts | 148° |
| 2026-05-07 12:27 | 55.04874 | 38.30898 | 28885 ft | 471 kts | 148° |
| 2026-05-07 12:27 | 55.02148 | 38.34061 | 29240 ft | 469 kts | 148° |
| 2026-05-07 12:28 | 54.99436 | 38.37196 | 29602 ft | 467 kts | 148° |
| 2026-05-07 12:28 | 54.96734 | 38.40310 | 29916 ft | 466 kts | 148° |
| 2026-05-07 12:28 | 54.94033 | 38.43413 | 30156 ft | 465 kts | 148° |
| 2026-05-07 12:28 | 54.91331 | 38.46511 | 30386 ft | 465 kts | 148° |
| 2026-05-07 12:29 | 54.88636 | 38.49604 | 30626 ft | 464 kts | 148° |
| 2026-05-07 12:29 | 54.85912 | 38.52732 | 30827 ft | 464 kts | 148° |
| 2026-05-07 12:29 | 54.83221 | 38.55819 | 30882 ft | 462 kts | 148° |
| 2026-05-07 12:30 | 54.77873 | 38.61928 | 30885 ft | 459 kts | 148° |
| 2026-05-07 12:30 | 54.72494 | 38.67876 | 30890 ft | 458 kts | 150° |
| 2026-05-07 12:31 | 54.67016 | 38.73507 | 30892 ft | 458 kts | 152° |
| 2026-05-07 12:31 | 54.61529 | 38.79068 | 30890 ft | 457 kts | 151° |
| 2026-05-07 12:32 | 54.56063 | 38.84704 | 30896 ft | 458 kts | 150° |
| 2026-05-07 12:32 | 54.50617 | 38.90378 | 30888 ft | 458 kts | 150° |
| 2026-05-07 12:33 | 54.42510 | 38.99039 | 30896 ft | 459 kts | 143° |
| 2026-05-07 12:33 | 54.38157 | 39.07025 | 30902 ft | 461 kts | 124° |
| 2026-05-07 12:34 | 54.35393 | 39.16942 | 30897 ft | 462 kts | 112° |
| 2026-05-07 12:34 | 54.32955 | 39.27150 | 30890 ft | 463 kts | 112° |
| 2026-05-07 12:35 | 54.30477 | 39.37320 | 30897 ft | 463 kts | 113° |
| 2026-05-07 12:35 | 54.28405 | 39.45770 | 30898 ft | 463 kts | 113° |
| 2026-05-07 12:36 | 54.25920 | 39.55926 | 30901 ft | 463 kts | 113° |
| 2026-05-07 12:36 | 54.23431 | 39.66083 | 30904 ft | 463 kts | 113° |
| 2026-05-07 12:37 | 54.20930 | 39.76222 | 30905 ft | 463 kts | 113° |
| 2026-05-07 12:37 | 54.18420 | 39.86347 | 30911 ft | 463 kts | 113° |
| 2026-05-07 12:38 | 54.15905 | 39.96460 | 30911 ft | 463 kts | 113° |
| 2026-05-07 12:38 | 54.13376 | 40.06549 | 30916 ft | 463 kts | 114° |
| 2026-05-07 12:39 | 54.11086 | 40.16792 | 30912 ft | 463 kts | 106° |
| 2026-05-07 12:39 | 54.09286 | 40.27310 | 30918 ft | 462 kts | 106° |
| 2026-05-07 12:40 | 54.07466 | 40.37804 | 30922 ft | 462 kts | 106° |
| 2026-05-07 12:40 | 54.05635 | 40.48281 | 30924 ft | 461 kts | 107° |
| 2026-05-07 12:41 | 54.03804 | 40.58668 | 30919 ft | 461 kts | 107° |
| 2026-05-07 12:41 | 54.01941 | 40.69176 | 30919 ft | 461 kts | 107° |
| 2026-05-07 12:42 | 54.00101 | 40.79532 | 30922 ft | 460 kts | 107° |
| 2026-05-07 12:42 | 53.98244 | 40.89941 | 30926 ft | 460 kts | 107° |
| 2026-05-07 12:43 | 53.96371 | 41.00319 | 30922 ft | 460 kts | 107° |
| 2026-05-07 12:43 | 53.94540 | 41.10714 | 30923 ft | 459 kts | 106° |
| 2026-05-07 12:44 | 53.92851 | 41.21166 | 30922 ft | 459 kts | 105° |
| 2026-05-07 12:44 | 53.91175 | 41.31616 | 30919 ft | 459 kts | 105° |
| 2026-05-07 12:45 | 53.89453 | 41.42043 | 30919 ft | 459 kts | 106° |
| 2026-05-07 12:45 | 53.87715 | 41.52452 | 30917 ft | 459 kts | 106° |
| 2026-05-07 12:46 | 53.85965 | 41.62852 | 30921 ft | 459 kts | 106° |
| 2026-05-07 12:46 | 53.84206 | 41.73224 | 30921 ft | 458 kts | 107° |
| 2026-05-07 12:47 | 53.82435 | 41.83594 | 30916 ft | 458 kts | 107° |
| 2026-05-07 12:47 | 53.80664 | 41.93938 | 30917 ft | 458 kts | 107° |
| 2026-05-07 12:48 | 53.78873 | 42.04281 | 30918 ft | 458 kts | 107° |
| 2026-05-07 12:48 | 53.77083 | 42.14610 | 30915 ft | 458 kts | 107° |
| 2026-05-07 12:49 | 53.75276 | 42.24924 | 30917 ft | 458 kts | 107° |
| 2026-05-07 12:49 | 53.73464 | 42.35216 | 30917 ft | 457 kts | 107° |
| 2026-05-07 12:50 | 53.71647 | 42.45497 | 30919 ft | 457 kts | 107° |
| 2026-05-07 12:50 | 53.69791 | 42.55737 | 30914 ft | 456 kts | 111° |
| 2026-05-07 12:51 | 53.66649 | 42.64928 | 30914 ft | 453 kts | 132° |
| 2026-05-07 12:51 | 53.61854 | 42.71670 | 30906 ft | 449 kts | 152° |
| 2026-05-07 12:52 | 53.56177 | 42.76016 | 30910 ft | 449 kts | 158° |
| 2026-05-07 12:52 | 53.50439 | 42.80147 | 30905 ft | 449 kts | 157° |
| 2026-05-07 12:53 | 53.44693 | 42.84289 | 30905 ft | 449 kts | 158° |
| 2026-05-07 12:53 | 53.38938 | 42.88414 | 30905 ft | 450 kts | 158° |
| 2026-05-07 12:54 | 53.33183 | 42.92539 | 30910 ft | 450 kts | 157° |
| 2026-05-07 12:54 | 53.27421 | 42.96646 | 30917 ft | 450 kts | 157° |
| 2026-05-07 12:55 | 53.21657 | 43.00732 | 30915 ft | 450 kts | 158° |
| 2026-05-07 12:55 | 53.15892 | 43.04827 | 30914 ft | 451 kts | 157° |
| 2026-05-07 12:56 | 53.10132 | 43.08948 | 30912 ft | 451 kts | 156° |
| 2026-05-07 12:56 | 53.04398 | 43.13232 | 30918 ft | 452 kts | 155° |
| 2026-05-07 12:57 | 52.98674 | 43.17534 | 30923 ft | 452 kts | 156° |
| 2026-05-07 12:57 | 52.92940 | 43.21787 | 30933 ft | 451 kts | 156° |
| 2026-05-07 12:58 | 52.87206 | 43.26015 | 30934 ft | 451 kts | 156° |
| 2026-05-07 12:58 | 52.81467 | 43.30238 | 30936 ft | 452 kts | 156° |
| 2026-05-07 12:59 | 52.75721 | 43.34454 | 30928 ft | 452 kts | 156° |
| 2026-05-07 12:59 | 52.69963 | 43.38655 | 30928 ft | 452 kts | 156° |
| 2026-05-07 13:00 | 52.64208 | 43.42845 | 30932 ft | 452 kts | 156° |
| 2026-05-07 13:00 | 52.58452 | 43.47033 | 30937 ft | 452 kts | 156° |
| 2026-05-07 13:01 | 52.52730 | 43.51174 | 30938 ft | 452 kts | 156° |
| 2026-05-07 13:01 | 52.46962 | 43.55330 | 30942 ft | 452 kts | 156° |
| 2026-05-07 13:02 | 52.41163 | 43.59516 | 30944 ft | 452 kts | 156° |
| 2026-05-07 13:02 | 52.35401 | 43.63665 | 30945 ft | 452 kts | 156° |
| 2026-05-07 13:03 | 52.29642 | 43.67787 | 30940 ft | 452 kts | 156° |
| 2026-05-07 13:03 | 52.23916 | 43.71885 | 30938 ft | 453 kts | 156° |
| 2026-05-07 13:04 | 52.18103 | 43.76028 | 30935 ft | 453 kts | 156° |
| 2026-05-07 13:04 | 52.12319 | 43.80141 | 30935 ft | 453 kts | 156° |
| 2026-05-07 13:05 | 52.06543 | 43.84239 | 30937 ft | 453 kts | 156° |
| 2026-05-07 13:05 | 52.00794 | 43.88294 | 30938 ft | 453 kts | 156° |
| 2026-05-07 13:06 | 51.95004 | 43.92365 | 30937 ft | 454 kts | 156° |
| 2026-05-07 13:06 | 51.89205 | 43.96421 | 30938 ft | 454 kts | 156° |
| 2026-05-07 13:07 | 51.83409 | 44.00487 | 30937 ft | 454 kts | 156° |
| 2026-05-07 13:07 | 51.77610 | 44.04538 | 30939 ft | 454 kts | 155° |
| 2026-05-07 13:08 | 51.71806 | 44.08589 | 30939 ft | 455 kts | 156° |
| 2026-05-07 13:08 | 51.66000 | 44.12621 | 30931 ft | 455 kts | 156° |
| 2026-05-07 13:09 | 51.60186 | 44.16639 | 30930 ft | 455 kts | 156° |
| 2026-05-07 13:09 | 51.54371 | 44.20655 | 30939 ft | 455 kts | 155° |
| 2026-05-07 13:10 | 51.48586 | 44.24646 | 30936 ft | 455 kts | 155° |
| 2026-05-07 13:10 | 51.42768 | 44.28641 | 30941 ft | 455 kts | 155° |
| 2026-05-07 13:11 | 51.36950 | 44.32624 | 30934 ft | 455 kts | 155° |
| 2026-05-07 13:11 | 51.31127 | 44.36591 | 30937 ft | 455 kts | 155° |
| 2026-05-07 13:12 | 51.25303 | 44.40556 | 30936 ft | 455 kts | 155° |
| 2026-05-07 13:12 | 51.19460 | 44.44477 | 30932 ft | 456 kts | 159° |
| 2026-05-07 13:13 | 51.13257 | 44.46498 | 30936 ft | 458 kts | 177° |
| 2026-05-07 13:13 | 51.06890 | 44.46035 | 30929 ft | 459 kts | 183° |
| 2026-05-07 13:14 | 51.00516 | 44.45434 | 30936 ft | 459 kts | 182° |
| 2026-05-07 13:14 | 50.94134 | 44.44873 | 30930 ft | 460 kts | 182° |
| 2026-05-07 13:15 | 50.87738 | 44.44288 | 30928 ft | 460 kts | 182° |
| 2026-05-07 13:15 | 50.81340 | 44.43682 | 30934 ft | 461 kts | 182° |
| 2026-05-07 13:16 | 50.74985 | 44.43080 | 30938 ft | 461 kts | 182° |
| 2026-05-07 13:16 | 50.68584 | 44.42495 | 30940 ft | 461 kts | 182° |
| 2026-05-07 13:17 | 50.62183 | 44.41912 | 30949 ft | 461 kts | 182° |
| 2026-05-07 13:17 | 50.55787 | 44.41320 | 30947 ft | 461 kts | 182° |
| 2026-05-07 13:18 | 50.49389 | 44.40741 | 30948 ft | 461 kts | 182° |
| 2026-05-07 13:18 | 50.42992 | 44.40151 | 30947 ft | 460 kts | 182° |
| 2026-05-07 13:19 | 50.36591 | 44.39557 | 30950 ft | 460 kts | 182° |
| 2026-05-07 13:19 | 50.30195 | 44.38975 | 30961 ft | 460 kts | 182° |
| 2026-05-07 13:20 | 50.23804 | 44.38390 | 30965 ft | 460 kts | 182° |
| 2026-05-07 13:20 | 50.18496 | 44.37911 | 30965 ft | 460 kts | 182° |
| 2026-05-07 13:21 | 50.12116 | 44.37333 | 30963 ft | 459 kts | 182° |
| 2026-05-07 13:21 | 50.05732 | 44.36770 | 30961 ft | 459 kts | 182° |
| 2026-05-07 13:22 | 49.99350 | 44.36201 | 30973 ft | 459 kts | 182° |
| 2026-05-07 13:22 | 49.92969 | 44.35625 | 30959 ft | 460 kts | 182° |
| 2026-05-07 13:23 | 49.86581 | 44.35057 | 30957 ft | 460 kts | 182° |
| 2026-05-07 13:23 | 49.80186 | 44.34489 | 30959 ft | 460 kts | 182° |
| 2026-05-07 13:24 | 49.73796 | 44.33922 | 30965 ft | 460 kts | 182° |
| 2026-05-07 13:24 | 49.67449 | 44.33360 | 30967 ft | 460 kts | 182° |
| 2026-05-07 13:25 | 49.61063 | 44.32795 | 30968 ft | 460 kts | 182° |
| 2026-05-07 13:25 | 49.54670 | 44.32319 | 30971 ft | 460 kts | 180° |
| 2026-05-07 13:26 | 49.48280 | 44.32408 | 30973 ft | 459 kts | 177° |
| 2026-05-07 13:26 | 49.41888 | 44.32744 | 30973 ft | 459 kts | 177° |
| 2026-05-07 13:27 | 49.35496 | 44.32995 | 30979 ft | 459 kts | 178° |
| 2026-05-07 13:27 | 49.29098 | 44.33143 | 30983 ft | 460 kts | 178° |
| 2026-05-07 13:28 | 49.22703 | 44.33267 | 30980 ft | 460 kts | 178° |
| 2026-05-07 13:28 | 49.16306 | 44.33411 | 30985 ft | 460 kts | 178° |
| 2026-05-07 13:29 | 49.09949 | 44.33568 | 30994 ft | 460 kts | 178° |
| 2026-05-07 13:29 | 49.03556 | 44.33734 | 31008 ft | 459 kts | 178° |
| 2026-05-07 13:30 | 48.97167 | 44.33889 | 31014 ft | 459 kts | 178° |
| 2026-05-07 13:30 | 48.90770 | 44.34042 | 31013 ft | 460 kts | 178° |
| 2026-05-07 13:31 | 48.84355 | 44.34667 | 31017 ft | 458 kts | 166° |
| 2026-05-07 13:31 | 48.81327 | 44.36076 | 31016 ft | 455 kts | 155° |
| 2026-05-07 13:31 | 48.78541 | 44.38314 | 31013 ft | 452 kts | 144° |
| 2026-05-07 13:32 | 48.76103 | 44.41284 | 31021 ft | 449 kts | 133° |
| 2026-05-07 13:32 | 48.74061 | 44.44851 | 31012 ft | 447 kts | 123° |
| 2026-05-07 13:32 | 48.70852 | 44.52878 | 31001 ft | 446 kts | 118° |
| 2026-05-07 13:33 | 48.67668 | 44.60949 | 30997 ft | 447 kts | 119° |
| 2026-05-07 13:33 | 48.64459 | 44.69025 | 30988 ft | 448 kts | 119° |
| 2026-05-07 13:34 | 48.59675 | 44.81085 | 30973 ft | 448 kts | 118° |
| 2026-05-07 13:35 | 48.56443 | 44.89221 | 30970 ft | 449 kts | 119° |
| 2026-05-07 13:35 | 48.53244 | 44.97236 | 30966 ft | 449 kts | 119° |
| 2026-05-07 13:36 | 48.50017 | 45.05293 | 30967 ft | 449 kts | 119° |
| 2026-05-07 13:36 | 48.46784 | 45.13340 | 30976 ft | 449 kts | 119° |
| 2026-05-07 13:37 | 48.43546 | 45.21369 | 30971 ft | 448 kts | 119° |
| 2026-05-07 13:37 | 48.39657 | 45.28702 | 30965 ft | 451 kts | 137° |
| 2026-05-07 13:38 | 48.34423 | 45.33871 | 30956 ft | 454 kts | 153° |
| 2026-05-07 13:38 | 48.28742 | 45.38025 | 30958 ft | 454 kts | 153° |
| 2026-05-07 13:39 | 48.23068 | 45.42195 | 30953 ft | 454 kts | 152° |
| 2026-05-07 13:39 | 48.17389 | 45.46368 | 30949 ft | 455 kts | 152° |
| 2026-05-07 13:40 | 48.11699 | 45.50529 | 30952 ft | 455 kts | 153° |
| 2026-05-07 13:40 | 48.06007 | 45.54671 | 30955 ft | 455 kts | 152° |
| 2026-05-07 13:41 | 48.00306 | 45.58811 | 30955 ft | 455 kts | 152° |
| 2026-05-07 13:41 | 47.94607 | 45.62933 | 30955 ft | 455 kts | 153° |
| 2026-05-07 13:42 | 47.88905 | 45.67052 | 30945 ft | 455 kts | 153° |
| 2026-05-07 13:42 | 47.83198 | 45.71174 | 30953 ft | 456 kts | 152° |
| 2026-05-07 13:43 | 47.77490 | 45.75280 | 30951 ft | 456 kts | 152° |
| 2026-05-07 13:43 | 47.71818 | 45.79355 | 30938 ft | 456 kts | 152° |
| 2026-05-07 13:44 | 47.66102 | 45.83439 | 30949 ft | 456 kts | 152° |
| 2026-05-07 13:44 | 47.60388 | 45.87518 | 30948 ft | 456 kts | 152° |
| 2026-05-07 13:45 | 47.54671 | 45.91589 | 30943 ft | 456 kts | 152° |
| 2026-05-07 13:45 | 47.48951 | 45.95654 | 30934 ft | 456 kts | 153° |
| 2026-05-07 13:46 | 47.43234 | 45.99706 | 30945 ft | 456 kts | 153° |
| 2026-05-07 13:46 | 47.37518 | 46.03756 | 30938 ft | 456 kts | 153° |
| 2026-05-07 13:47 | 47.31794 | 46.07791 | 30937 ft | 456 kts | 153° |
| 2026-05-07 13:47 | 47.26071 | 46.11829 | 30943 ft | 456 kts | 152° |
| 2026-05-07 13:48 | 47.20345 | 46.15853 | 30941 ft | 456 kts | 152° |
| 2026-05-07 13:48 | 47.14617 | 46.19857 | 30939 ft | 456 kts | 153° |
| 2026-05-07 13:49 | 47.08946 | 46.24012 | 30943 ft | 454 kts | 145° |
| 2026-05-07 13:49 | 47.04220 | 46.29993 | 30938 ft | 447 kts | 126° |
| 2026-05-07 13:50 | 47.00988 | 46.37669 | 30937 ft | 442 kts | 115° |
| 2026-05-07 13:50 | 46.98165 | 46.45686 | 30933 ft | 443 kts | 115° |
| 2026-05-07 13:51 | 46.95308 | 46.53665 | 30921 ft | 443 kts | 115° |
| 2026-05-07 13:51 | 46.92448 | 46.61652 | 30921 ft | 443 kts | 116° |
| 2026-05-07 13:52 | 46.89592 | 46.69633 | 30903 ft | 443 kts | 115° |
| 2026-05-07 13:52 | 46.86736 | 46.77621 | 30902 ft | 443 kts | 116° |
| 2026-05-07 13:53 | 46.83876 | 46.85604 | 30897 ft | 444 kts | 114° |
| 2026-05-07 13:53 | 46.81022 | 46.93519 | 30896 ft | 444 kts | 117° |
| 2026-05-07 13:54 | 46.78139 | 47.01485 | 30904 ft | 444 kts | 116° |
| 2026-05-07 13:54 | 46.75253 | 47.09444 | 30891 ft | 444 kts | 115° |
| 2026-05-07 13:55 | 46.72353 | 47.17405 | 30897 ft | 444 kts | 115° |
| 2026-05-07 13:55 | 46.69459 | 47.25354 | 30893 ft | 444 kts | 116° |
| 2026-05-07 13:56 | 46.66566 | 47.33280 | 30895 ft | 443 kts | 116° |
| 2026-05-07 13:56 | 46.63669 | 47.41180 | 30894 ft | 442 kts | 116° |
| 2026-05-07 13:57 | 46.60770 | 47.49057 | 30887 ft | 441 kts | 116° |
| 2026-05-07 13:57 | 46.57870 | 47.56922 | 30880 ft | 441 kts | 115° |
| 2026-05-07 13:58 | 46.54965 | 47.64766 | 30873 ft | 441 kts | 117° |
| 2026-05-07 13:58 | 46.52056 | 47.72600 | 30861 ft | 441 kts | 117° |
| 2026-05-07 13:59 | 46.49143 | 47.80435 | 30867 ft | 441 kts | 116° |
| 2026-05-07 13:59 | 46.46222 | 47.88259 | 30855 ft | 441 kts | 116° |
| 2026-05-07 14:00 | 46.43293 | 47.96069 | 30853 ft | 441 kts | 116° |
| 2026-05-07 14:00 | 46.40359 | 48.03878 | 30878 ft | 441 kts | 116° |
| 2026-05-07 14:01 | 46.37428 | 48.11664 | 30883 ft | 440 kts | 118° |
| 2026-05-07 14:01 | 46.34489 | 48.19449 | 30885 ft | 440 kts | 118° |
| 2026-05-07 14:02 | 46.31549 | 48.27211 | 30875 ft | 440 kts | 117° |
| 2026-05-07 14:02 | 46.28603 | 48.34971 | 30874 ft | 440 kts | 117° |
| 2026-05-07 14:03 | 46.25652 | 48.42710 | 30876 ft | 439 kts | 118° |
| 2026-05-07 14:03 | 46.22697 | 48.50431 | 30868 ft | 439 kts | 117° |
| 2026-05-07 14:04 | 46.18978 | 48.57396 | 30872 ft | 442 kts | 137° |
| 2026-05-07 14:04 | 46.16512 | 48.60058 | 30869 ft | 443 kts | 148° |
| 2026-05-07 14:04 | 46.13759 | 48.62067 | 30862 ft | 445 kts | 158° |
| 2026-05-07 14:05 | 46.07851 | 48.64596 | 30860 ft | 447 kts | 163° |
| 2026-05-07 14:05 | 46.01852 | 48.66999 | 30862 ft | 448 kts | 163° |
| 2026-05-07 14:06 | 45.95849 | 48.69405 | 30875 ft | 448 kts | 162° |
| 2026-05-07 14:06 | 45.89829 | 48.71824 | 30874 ft | 449 kts | 162° |
| 2026-05-07 14:07 | 45.83809 | 48.74237 | 30878 ft | 450 kts | 162° |
| 2026-05-07 14:07 | 45.77772 | 48.76655 | 30880 ft | 451 kts | 163° |
| 2026-05-07 14:08 | 45.71722 | 48.79070 | 30890 ft | 452 kts | 163° |
| 2026-05-07 14:08 | 45.65659 | 48.81471 | 30897 ft | 452 kts | 163° |
| 2026-05-07 14:09 | 45.59599 | 48.83866 | 30900 ft | 452 kts | 163° |
| 2026-05-07 14:09 | 45.53545 | 48.86272 | 30917 ft | 451 kts | 163° |
| 2026-05-07 14:10 | 45.48514 | 48.88263 | 30911 ft | 451 kts | 163° |
| 2026-05-07 14:10 | 45.41453 | 48.91032 | 30938 ft | 449 kts | 163° |
| 2026-05-07 14:11 | 45.36452 | 48.92997 | 30940 ft | 448 kts | 163° |
| 2026-05-07 14:11 | 45.30451 | 48.95351 | 30943 ft | 447 kts | 162° |
| 2026-05-07 14:12 | 45.24458 | 48.97695 | 30942 ft | 447 kts | 163° |
| 2026-05-07 14:12 | 45.18454 | 49.00038 | 30937 ft | 447 kts | 163° |
| 2026-05-07 14:13 | 45.12457 | 49.02379 | 30936 ft | 447 kts | 163° |
| 2026-05-07 14:13 | 45.06456 | 49.04708 | 30952 ft | 447 kts | 163° |
| 2026-05-07 14:14 | 45.00456 | 49.07023 | 30951 ft | 447 kts | 163° |
| 2026-05-07 14:14 | 44.94466 | 49.09340 | 30961 ft | 446 kts | 163° |
| 2026-05-07 14:15 | 44.88483 | 49.11652 | 30962 ft | 446 kts | 163° |
| 2026-05-07 14:15 | 44.82503 | 49.13965 | 30966 ft | 445 kts | 164° |
| 2026-05-07 14:16 | 44.76538 | 49.16271 | 30979 ft | 444 kts | 164° |
| 2026-05-07 14:16 | 44.70617 | 49.18552 | 30984 ft | 444 kts | 165° |
| 2026-05-07 14:17 | 44.64663 | 49.20822 | 30987 ft | 443 kts | 165° |
| 2026-05-07 14:17 | 44.58711 | 49.23085 | 30972 ft | 443 kts | 167° |
| 2026-05-07 14:18 | 44.52762 | 49.25356 | 30974 ft | 443 kts | 167° |
| 2026-05-07 14:18 | 44.46817 | 49.27612 | 30981 ft | 443 kts | 167° |
| 2026-05-07 14:19 | 44.40871 | 49.29869 | 30973 ft | 442 kts | 168° |
| 2026-05-07 14:19 | 44.34938 | 49.32127 | 30993 ft | 442 kts | 168° |
| 2026-05-07 14:20 | 44.29009 | 49.34371 | 30999 ft | 441 kts | 169° |
| 2026-05-07 14:20 | 44.23096 | 49.36614 | 31008 ft | 440 kts | 169° |
| 2026-05-07 14:21 | 44.17189 | 49.38849 | 30995 ft | 439 kts | 169° |
| 2026-05-07 14:21 | 44.11295 | 49.41055 | 30996 ft | 438 kts | 170° |
| 2026-05-07 14:22 | 44.05407 | 49.43252 | 31015 ft | 438 kts | 169° |
| 2026-05-07 14:22 | 43.99526 | 49.45451 | 31003 ft | 438 kts | 170° |
| 2026-05-07 14:22 | 43.96565 | 49.46255 | 31002 ft | 429 kts | 182° |
| 2026-05-07 14:23 | 43.93632 | 49.46002 | 30993 ft | 418 kts | 197° |
| 2026-05-07 14:23 | 43.90925 | 49.44671 | 31007 ft | 410 kts | 212° |
| 2026-05-07 14:23 | 43.88629 | 49.42410 | 30995 ft | 404 kts | 226° |
| 2026-05-07 14:23 | 43.86860 | 49.39415 | 31001 ft | 401 kts | 240° |
| 2026-05-07 14:24 | 43.85722 | 49.35904 | 30998 ft | 401 kts | 253° |
| 2026-05-07 14:24 | 43.84737 | 49.28284 | 31004 ft | 403 kts | 259° |
| 2026-05-07 14:25 | 43.83828 | 49.20670 | 31006 ft | 404 kts | 259° |
| 2026-05-07 14:25 | 43.82896 | 49.12993 | 31009 ft | 405 kts | 259° |
| 2026-05-07 14:26 | 43.81956 | 49.05308 | 31006 ft | 405 kts | 258° |
| 2026-05-07 14:26 | 43.81006 | 48.97614 | 31020 ft | 405 kts | 259° |
| 2026-05-07 14:27 | 43.80053 | 48.89914 | 31008 ft | 406 kts | 259° |
| 2026-05-07 14:27 | 43.79097 | 48.82200 | 31015 ft | 407 kts | 259° |
| 2026-05-07 14:28 | 43.78139 | 48.74485 | 31023 ft | 407 kts | 258° |
| 2026-05-07 14:28 | 43.77169 | 48.66770 | 31010 ft | 407 kts | 258° |
| 2026-05-07 14:29 | 43.76194 | 48.59051 | 31010 ft | 407 kts | 258° |
| 2026-05-07 14:29 | 43.75219 | 48.51340 | 31023 ft | 407 kts | 258° |
| 2026-05-07 14:30 | 43.74240 | 48.43679 | 31024 ft | 407 kts | 258° |
| 2026-05-07 14:30 | 43.73247 | 48.35978 | 31021 ft | 407 kts | 258° |
| 2026-05-07 14:31 | 43.72257 | 48.28278 | 31020 ft | 407 kts | 258° |
| 2026-05-07 14:31 | 43.71256 | 48.20583 | 31041 ft | 407 kts | 258° |
| 2026-05-07 14:32 | 43.70245 | 48.12885 | 31026 ft | 407 kts | 258° |
| 2026-05-07 14:32 | 43.69239 | 48.05188 | 31021 ft | 408 kts | 258° |
| 2026-05-07 14:33 | 43.68221 | 47.97475 | 31021 ft | 408 kts | 258° |
| 2026-05-07 14:33 | 43.67200 | 47.89760 | 31024 ft | 408 kts | 258° |
| 2026-05-07 14:34 | 43.66166 | 47.82049 | 31023 ft | 408 kts | 258° |
| 2026-05-07 14:34 | 43.65128 | 47.74332 | 31024 ft | 409 kts | 258° |
| 2026-05-07 14:35 | 43.64092 | 47.66673 | 31025 ft | 409 kts | 258° |
| 2026-05-07 14:35 | 43.63058 | 47.58964 | 31028 ft | 409 kts | 258° |
| 2026-05-07 14:36 | 43.62006 | 47.51254 | 31030 ft | 409 kts | 258° |
| 2026-05-07 14:36 | 43.61147 | 47.43496 | 31036 ft | 410 kts | 262° |
| 2026-05-07 14:37 | 43.60563 | 47.35633 | 31010 ft | 414 kts | 263° |
| 2026-05-07 14:37 | 43.59674 | 47.23728 | 31087 ft | 420 kts | 262° |
| 2026-05-07 14:38 | 43.59341 | 47.19713 | 31225 ft | 423 kts | 262° |
| 2026-05-07 14:38 | 43.58996 | 47.15672 | 31365 ft | 426 kts | 262° |
| 2026-05-07 14:38 | 43.58640 | 47.11605 | 31573 ft | 427 kts | 262° |
| 2026-05-07 14:38 | 43.58283 | 47.07548 | 31805 ft | 427 kts | 262° |
| 2026-05-07 14:39 | 43.57928 | 47.03470 | 32031 ft | 428 kts | 262° |
| 2026-05-07 14:39 | 43.57578 | 46.99394 | 32261 ft | 428 kts | 262° |
| 2026-05-07 14:39 | 43.57228 | 46.95317 | 32491 ft | 429 kts | 262° |
| 2026-05-07 14:39 | 43.56878 | 46.91235 | 32711 ft | 429 kts | 262° |
| 2026-05-07 14:40 | 43.56527 | 46.87148 | 32934 ft | 429 kts | 262° |
| 2026-05-07 14:40 | 43.56168 | 46.83004 | 33159 ft | 430 kts | 262° |
| 2026-05-07 14:40 | 43.55812 | 46.78915 | 33374 ft | 431 kts | 262° |
| 2026-05-07 14:40 | 43.55451 | 46.74808 | 33510 ft | 433 kts | 262° |
| 2026-05-07 14:41 | 43.55083 | 46.70687 | 33700 ft | 433 kts | 262° |
| 2026-05-07 14:41 | 43.54712 | 46.66568 | 33922 ft | 433 kts | 262° |
| 2026-05-07 14:41 | 43.54343 | 46.62445 | 34046 ft | 434 kts | 262° |
| 2026-05-07 14:41 | 43.53975 | 46.58316 | 34063 ft | 434 kts | 262° |
| 2026-05-07 14:42 | 43.53235 | 46.50072 | 34062 ft | 433 kts | 262° |
| 2026-05-07 14:42 | 43.52489 | 46.41838 | 34068 ft | 433 kts | 262° |
| 2026-05-07 14:43 | 43.51736 | 46.33603 | 34066 ft | 432 kts | 262° |
| 2026-05-07 14:43 | 43.50975 | 46.25397 | 34070 ft | 431 kts | 262° |
| 2026-05-07 14:44 | 43.50206 | 46.17204 | 34072 ft | 431 kts | 262° |
| 2026-05-07 14:44 | 43.49431 | 46.09005 | 34068 ft | 432 kts | 262° |
| 2026-05-07 14:45 | 43.49231 | 46.00736 | 34063 ft | 435 kts | 276° |
| 2026-05-07 14:45 | 43.49946 | 45.92446 | 34064 ft | 436 kts | 275° |
| 2026-05-07 14:46 | 43.50637 | 45.84141 | 34069 ft | 437 kts | 275° |
| 2026-05-07 14:46 | 43.51314 | 45.75818 | 34071 ft | 437 kts | 275° |
| 2026-05-07 14:47 | 43.51988 | 45.67487 | 34075 ft | 437 kts | 275° |
| 2026-05-07 14:47 | 43.52655 | 45.59150 | 34070 ft | 439 kts | 275° |
| 2026-05-07 14:48 | 43.53324 | 45.50783 | 34071 ft | 439 kts | 275° |
| 2026-05-07 14:48 | 43.53988 | 45.42410 | 34075 ft | 440 kts | 275° |
| 2026-05-07 14:49 | 43.54651 | 45.34025 | 34081 ft | 440 kts | 275° |
| 2026-05-07 14:49 | 43.55311 | 45.25639 | 34085 ft | 440 kts | 275° |
| 2026-05-07 14:50 | 43.55954 | 45.17240 | 34090 ft | 441 kts | 275° |
| 2026-05-07 14:50 | 43.56587 | 45.08765 | 34094 ft | 442 kts | 275° |
| 2026-05-07 14:51 | 43.57215 | 45.00336 | 34090 ft | 443 kts | 275° |
| 2026-05-07 14:51 | 43.57842 | 44.91933 | 34107 ft | 443 kts | 275° |
| 2026-05-07 14:52 | 43.58469 | 44.83483 | 34107 ft | 443 kts | 275° |
| 2026-05-07 14:52 | 43.59097 | 44.75025 | 34102 ft | 444 kts | 276° |
| 2026-05-07 14:53 | 43.59712 | 44.66533 | 34102 ft | 446 kts | 275° |
| 2026-05-07 14:53 | 43.60324 | 44.58016 | 34100 ft | 447 kts | 275° |
| 2026-05-07 14:54 | 43.60929 | 44.49472 | 34109 ft | 447 kts | 275° |
| 2026-05-07 14:54 | 43.61526 | 44.40923 | 34112 ft | 448 kts | 275° |
| 2026-05-07 14:55 | 43.62020 | 44.33820 | 34115 ft | 448 kts | 275° |
| 2026-05-07 14:55 | 43.62612 | 44.25195 | 34097 ft | 449 kts | 276° |
| 2026-05-07 14:56 | 43.63184 | 44.16658 | 34092 ft | 450 kts | 276° |
| 2026-05-07 14:56 | 43.63665 | 44.08021 | 34097 ft | 452 kts | 273° |
| 2026-05-07 14:57 | 43.63911 | 43.99366 | 34109 ft | 452 kts | 272° |
| 2026-05-07 14:57 | 43.64098 | 43.90692 | 34103 ft | 452 kts | 272° |
| 2026-05-07 14:58 | 43.64325 | 43.81854 | 34108 ft | 451 kts | 272° |
| 2026-05-07 14:58 | 43.64490 | 43.75840 | 34104 ft | 449 kts | 273° |
| 2026-05-07 14:59 | 43.64609 | 43.73566 | 34102 ft | 441 kts | 282° |
| 2026-05-07 14:59 | 43.64689 | 43.72830 | 34231 ft | 433 kts | 284° |
| 2026-05-07 14:59 | 43.64887 | 43.71589 | 34605 ft | 413 kts | 285° |
| 2026-05-07 15:00 | 43.65012 | 43.70930 | 34914 ft | 401 kts | 288° |
| 2026-05-07 15:00 | 43.65130 | 43.70379 | 35251 ft | 388 kts | 288° |
| 2026-05-07 15:00 | 43.65224 | 43.69977 | 35443 ft | 381 kts | 290° |
| 2026-05-07 15:01 | 43.65307 | 43.69638 | 35646 ft | 368 kts | 287° |
| 2026-05-07 15:01 | 43.65402 | 43.69260 | 35897 ft | 371 kts | 290° |
| 2026-05-07 15:01 | 43.65458 | 43.69037 | 35968 ft | 367 kts | 291° |
| 2026-05-07 15:02 | 43.65571 | 43.68599 | 36143 ft | 363 kts | 288° |
| 2026-05-07 15:02 | 43.65693 | 43.68144 | 36279 ft | 356 kts | 291° |
| 2026-05-07 15:02 | 43.65752 | 43.67931 | 36345 ft | 357 kts | 295° |
| 2026-05-07 15:03 | 43.65827 | 43.67670 | 36378 ft | 353 kts | 295° |
| 2026-05-07 15:03 | 43.66669 | 43.65313 | 36283 ft | 357 kts | 302° |
| 2026-05-07 15:04 | 43.67389 | 43.63909 | 35904 ft | 367 kts | 315° |
| 2026-05-07 15:04 | 43.69510 | 43.61792 | 34771 ft | 399 kts | 341° |
| 2026-05-07 15:04 | 43.72321 | 43.61234 | 34076 ft | 415 kts | 10° |
| 2026-05-07 15:05 | 43.74533 | 43.62243 | 34380 ft | 401 kts | 33° |
| 2026-05-07 15:05 | 43.74770 | 43.62443 | 34464 ft | 398 kts | 36° |
| 2026-05-07 15:05 | 43.74998 | 43.62656 | 34549 ft | 394 kts | 37° |
| 2026-05-07 15:06 | 43.75289 | 43.62956 | 34655 ft | 387 kts | 49° |
| 2026-05-07 15:06 | 43.75425 | 43.63115 | 34749 ft | 384 kts | 37° |
| 2026-05-07 15:06 | 43.75923 | 43.63726 | 34926 ft | 374 kts | 45° |
| 2026-05-07 15:07 | 43.76959 | 43.65227 | 35186 ft | 364 kts | 52° |
| 2026-05-07 15:07 | 43.78343 | 43.68023 | 35458 ft | 358 kts | 62° |
| 2026-05-07 15:07 | 43.79323 | 43.71218 | 35289 ft | 366 kts | 73° |
| 2026-05-07 15:07 | 43.79802 | 43.74430 | 34992 ft | 377 kts | 85° |
| 2026-05-07 15:08 | 43.79802 | 43.77959 | 34991 ft | 377 kts | 97° |
| 2026-05-07 15:08 | 43.79778 | 43.78242 | 35011 ft | 377 kts | 98° |
| 2026-05-07 15:08 | 43.79744 | 43.78600 | 35031 ft | 376 kts | 99° |
| 2026-05-07 15:09 | 43.79718 | 43.78838 | 35047 ft | 375 kts | 99° |
| 2026-05-07 15:09 | 43.79229 | 43.82529 | 35367 ft | 361 kts | 101° |
| 2026-05-07 15:10 | 43.78667 | 43.85888 | 35496 ft | 360 kts | 111° |
| 2026-05-07 15:10 | 43.77476 | 43.89006 | 34902 ft | 378 kts | 131° |
| 2026-05-07 15:10 | 43.75442 | 43.91389 | 34515 ft | 391 kts | 153° |
| 2026-05-07 15:10 | 43.72841 | 43.92642 | 34176 ft | 405 kts | 172° |
| 2026-05-07 15:11 | 43.70028 | 43.92488 | 34134 ft | 408 kts | 195° |
| 2026-05-07 15:11 | 43.67443 | 43.90918 | 34080 ft | 411 kts | 218° |
| 2026-05-07 15:11 | 43.65322 | 43.88169 | 34118 ft | 408 kts | 224° |
| 2026-05-07 15:12 | 43.62694 | 43.85219 | 34492 ft | 388 kts | 214° |
| 2026-05-07 15:12 | 43.60555 | 43.83021 | 34564 ft | 393 kts | 227° |
| 2026-05-07 15:12 | 43.59098 | 43.79805 | 34242 ft | 399 kts | 253° |
| 2026-05-07 15:13 | 43.58620 | 43.76040 | 34123 ft | 404 kts | 275° |
| 2026-05-07 15:13 | 43.59128 | 43.72238 | 34117 ft | 405 kts | 290° |
| 2026-05-07 15:13 | 43.61058 | 43.64828 | 34090 ft | 416 kts | 291° |
| 2026-05-07 15:14 | 43.63063 | 43.57246 | 34110 ft | 426 kts | 290° |
| 2026-05-07 15:14 | 43.64544 | 43.51648 | 34128 ft | 432 kts | 289° |
| 2026-05-07 15:15 | 43.65247 | 43.46835 | 34212 ft | 427 kts | 275° |
| 2026-05-07 15:15 | 43.65323 | 43.42680 | 33998 ft | 438 kts | 269° |
| 2026-05-07 15:15 | 43.65306 | 43.38479 | 34143 ft | 439 kts | 272° |
| 2026-05-07 15:16 | 43.65566 | 43.29946 | 34152 ft | 450 kts | 274° |
| 2026-05-07 15:16 | 43.65898 | 43.21255 | 34149 ft | 455 kts | 273° |
| 2026-05-07 15:17 | 43.66045 | 43.16321 | 34151 ft | 456 kts | 273° |
| 2026-05-07 15:18 | 43.66098 | 43.14304 | 34155 ft | 456 kts | 272° |
| 2026-05-07 15:18 | 43.66278 | 43.05552 | 34158 ft | 456 kts | 272° |
| 2026-05-07 15:19 | 43.66436 | 42.96805 | 34169 ft | 456 kts | 272° |
| 2026-05-07 15:19 | 43.66605 | 42.88056 | 34159 ft | 456 kts | 272° |
| 2026-05-07 15:20 | 43.66784 | 42.79296 | 34170 ft | 457 kts | 272° |
| 2026-05-07 15:20 | 43.66954 | 42.70450 | 34175 ft | 458 kts | 272° |
| 2026-05-07 15:21 | 43.67111 | 42.61653 | 34182 ft | 459 kts | 272° |
| 2026-05-07 15:21 | 43.67262 | 42.52848 | 34184 ft | 459 kts | 272° |
| 2026-05-07 15:22 | 43.67410 | 42.44038 | 34184 ft | 459 kts | 272° |
| 2026-05-07 15:22 | 43.67549 | 42.35216 | 34182 ft | 459 kts | 272° |
| 2026-05-07 15:23 | 43.67680 | 42.26383 | 34186 ft | 460 kts | 272° |
| 2026-05-07 15:23 | 43.67806 | 42.17545 | 34184 ft | 461 kts | 272° |
| 2026-05-07 15:24 | 43.67909 | 42.10193 | 34186 ft | 461 kts | 272° |
| 2026-05-07 15:24 | 43.68019 | 42.01348 | 34185 ft | 461 kts | 272° |
| 2026-05-07 15:25 | 43.68121 | 41.92499 | 34177 ft | 461 kts | 272° |
| 2026-05-07 15:25 | 43.68222 | 41.83632 | 34176 ft | 462 kts | 272° |
| 2026-05-07 15:26 | 43.68324 | 41.74761 | 34179 ft | 462 kts | 272° |
| 2026-05-07 15:26 | 43.68416 | 41.65898 | 34181 ft | 462 kts | 272° |
| 2026-05-07 15:27 | 43.68496 | 41.57028 | 34185 ft | 462 kts | 272° |
| 2026-05-07 15:27 | 43.68563 | 41.48152 | 34186 ft | 462 kts | 272° |
| 2026-05-07 15:28 | 43.68629 | 41.39273 | 34175 ft | 462 kts | 272° |
| 2026-05-07 15:28 | 43.68689 | 41.30407 | 34178 ft | 462 kts | 272° |
| 2026-05-07 15:29 | 43.68744 | 41.21523 | 34185 ft | 462 kts | 272° |
| 2026-05-07 15:29 | 43.68785 | 41.12639 | 34187 ft | 462 kts | 272° |
| 2026-05-07 15:30 | 43.68820 | 41.03759 | 34187 ft | 462 kts | 272° |
| 2026-05-07 15:30 | 43.68854 | 40.94865 | 34176 ft | 462 kts | 272° |
| 2026-05-07 15:31 | 43.68878 | 40.85964 | 34172 ft | 463 kts | 272° |
| 2026-05-07 15:31 | 43.68898 | 40.77067 | 34176 ft | 464 kts | 272° |
| 2026-05-07 15:32 | 43.68913 | 40.68134 | 34172 ft | 464 kts | 272° |
| 2026-05-07 15:32 | 43.68915 | 40.59220 | 34178 ft | 464 kts | 272° |
| 2026-05-07 15:33 | 43.68915 | 40.50297 | 34170 ft | 464 kts | 271° |
| 2026-05-07 15:33 | 43.68909 | 40.41379 | 34176 ft | 464 kts | 271° |
| 2026-05-07 15:34 | 43.68891 | 40.32467 | 34181 ft | 464 kts | 271° |
| 2026-05-07 15:34 | 43.68865 | 40.23531 | 34186 ft | 464 kts | 271° |
| 2026-05-07 15:35 | 43.68764 | 40.14608 | 34189 ft | 465 kts | 266° |
| 2026-05-07 15:35 | 43.67219 | 40.05942 | 34190 ft | 467 kts | 247° |
| 2026-05-07 15:36 | 43.64539 | 39.97767 | 34187 ft | 468 kts | 246° |
| 2026-05-07 15:36 | 43.61863 | 39.89579 | 34178 ft | 468 kts | 246° |
| 2026-05-07 15:37 | 43.59200 | 39.81403 | 34179 ft | 467 kts | 246° |
| 2026-05-07 15:37 | 43.56505 | 39.73180 | 34185 ft | 467 kts | 246° |
| 2026-05-07 15:38 | 43.53813 | 39.65016 | 34188 ft | 467 kts | 246° |
| 2026-05-07 15:38 | 43.51101 | 39.56864 | 34192 ft | 467 kts | 246° |
| 2026-05-07 15:39 | 43.48387 | 39.48743 | 34193 ft | 467 kts | 246° |
| 2026-05-07 15:39 | 43.45667 | 39.40621 | 34197 ft | 467 kts | 246° |
| 2026-05-07 15:40 | 43.42937 | 39.32517 | 34197 ft | 467 kts | 246° |
| 2026-05-07 15:40 | 43.40205 | 39.24417 | 34193 ft | 467 kts | 246° |
| 2026-05-07 15:41 | 43.37478 | 39.16323 | 34196 ft | 466 kts | 246° |
| 2026-05-07 15:41 | 43.34759 | 39.08237 | 34195 ft | 466 kts | 247° |
| 2026-05-07 15:42 | 43.32312 | 39.00008 | 34196 ft | 465 kts | 251° |
| 2026-05-07 15:42 | 43.30085 | 38.91676 | 34192 ft | 465 kts | 251° |
| 2026-05-07 15:43 | 43.27832 | 38.83363 | 34189 ft | 464 kts | 250° |
| 2026-05-07 15:43 | 43.25519 | 38.75151 | 34199 ft | 464 kts | 250° |
| 2026-05-07 15:44 | 43.23124 | 38.66878 | 34201 ft | 463 kts | 249° |
| 2026-05-07 15:44 | 43.20727 | 38.58678 | 34201 ft | 463 kts | 249° |
| 2026-05-07 15:45 | 43.18342 | 38.50477 | 34198 ft | 463 kts | 250° |
| 2026-05-07 15:45 | 43.15970 | 38.42294 | 34210 ft | 462 kts | 250° |
| 2026-05-07 15:46 | 43.12405 | 38.30030 | 34198 ft | 462 kts | 249° |
| 2026-05-07 15:47 | 43.10007 | 38.21878 | 34198 ft | 462 kts | 249° |
| 2026-05-07 15:47 | 43.07613 | 38.13734 | 34212 ft | 461 kts | 250° |
| 2026-05-07 15:48 | 43.05254 | 38.05582 | 34211 ft | 460 kts | 250° |
| 2026-05-07 15:48 | 43.02900 | 37.97444 | 34208 ft | 460 kts | 250° |
| 2026-05-07 15:49 | 43.00532 | 37.89386 | 34207 ft | 460 kts | 249° |
| 2026-05-07 15:49 | 42.98110 | 37.81253 | 34207 ft | 459 kts | 249° |
| 2026-05-07 15:50 | 42.95699 | 37.73183 | 34206 ft | 458 kts | 249° |
| 2026-05-07 15:50 | 42.93295 | 37.65140 | 34201 ft | 458 kts | 249° |
| 2026-05-07 15:51 | 42.90900 | 37.57159 | 34202 ft | 457 kts | 249° |
| 2026-05-07 15:51 | 42.88466 | 37.49087 | 34204 ft | 457 kts | 250° |
| 2026-05-07 15:52 | 42.86052 | 37.41085 | 34207 ft | 456 kts | 249° |
| 2026-05-07 15:52 | 42.83632 | 37.33108 | 34208 ft | 455 kts | 249° |
| 2026-05-07 15:53 | 42.81205 | 37.25151 | 34212 ft | 455 kts | 249° |
| 2026-05-07 15:53 | 42.78796 | 37.17251 | 34196 ft | 454 kts | 249° |
| 2026-05-07 15:54 | 42.76373 | 37.09327 | 34201 ft | 453 kts | 249° |
| 2026-05-07 15:54 | 42.74290 | 37.02543 | 34203 ft | 452 kts | 249° |
| 2026-05-07 15:55 | 42.73406 | 36.99678 | 34157 ft | 451 kts | 247° |
| 2026-05-07 15:55 | 42.72912 | 36.97414 | 34036 ft | 445 kts | 262° |
| 2026-05-07 15:55 | 42.72851 | 36.96955 | 34036 ft | 443 kts | 269° |
| 2026-05-07 15:55 | 42.72908 | 36.93931 | 34199 ft | 426 kts | 288° |
| 2026-05-07 15:56 | 42.73994 | 36.90405 | 35030 ft | 398 kts | 288° |
| 2026-05-07 15:56 | 42.74531 | 36.87062 | 34891 ft | 403 kts | 272° |
| 2026-05-07 15:56 | 42.74299 | 36.83251 | 34997 ft | 409 kts | 256° |
| 2026-05-07 15:56 | 42.73157 | 36.79692 | 34918 ft | 420 kts | 235° |
| 2026-05-07 15:57 | 42.73121 | 36.79620 | 34905 ft | 420 kts | 234° |
| 2026-05-07 16:00 | 42.72363 | 36.78255 | 34635 ft | 428 kts | 232° |
| 2026-05-07 16:01 | 42.71292 | 36.76671 | 34367 ft | 434 kts | 225° |
| 2026-05-07 16:01 | 42.69514 | 36.74384 | 34234 ft | 435 kts | 225° |
| 2026-05-07 16:01 | 42.68506 | 36.72913 | 34187 ft | 433 kts | 232° |
| 2026-05-07 16:02 | 42.66159 | 36.69407 | 34186 ft | 439 kts | 229° |
| 2026-05-07 16:02 | 42.63525 | 36.65811 | 34187 ft | 439 kts | 230° |
| 2026-05-07 16:03 | 42.62954 | 36.64924 | 34197 ft | 436 kts | 227° |
| 2026-05-07 16:03 | 42.59930 | 36.59458 | 34195 ft | 438 kts | 234° |
| 2026-05-07 16:04 | 42.57723 | 36.55357 | 34177 ft | 440 kts | 240° |
| 2026-05-07 16:04 | 42.55425 | 36.49807 | 34192 ft | 446 kts | 245° |
| 2026-05-07 16:05 | 42.53718 | 36.45402 | 34195 ft | 449 kts | 246° |
| 2026-05-07 16:05 | 42.51318 | 36.38524 | 34189 ft | 451 kts | 248° |
| 2026-05-07 16:06 | 42.49590 | 36.33102 | 34290 ft | 445 kts | 251° |
| 2026-05-07 16:06 | 42.48783 | 36.29683 | 34170 ft | 443 kts | 259° |
| 2026-05-07 16:16 | 42.48772 | 36.29620 | 34165 ft | 443 kts | 259° |
| 2026-05-07 16:16 | 42.47761 | 36.25601 | 33833 ft | 443 kts | 243° |
| 2026-05-07 16:16 | 42.46252 | 36.21964 | 33928 ft | 445 kts | 240° |
| 2026-05-07 16:17 | 42.42901 | 36.14802 | 33924 ft | 453 kts | 241° |
| 2026-05-07 16:17 | 42.40059 | 36.07953 | 33923 ft | 453 kts | 245° |
| 2026-05-07 16:18 | 42.37262 | 36.00285 | 33915 ft | 452 kts | 247° |
| 2026-05-07 16:18 | 42.34523 | 35.92643 | 33921 ft | 451 kts | 246° |
| 2026-05-07 16:19 | 42.31712 | 35.85062 | 33921 ft | 451 kts | 245° |
| 2026-05-07 16:19 | 42.28853 | 35.77513 | 34023 ft | 451 kts | 245° |
| 2026-05-07 16:19 | 42.27423 | 35.73752 | 34163 ft | 451 kts | 245° |
| 2026-05-07 16:20 | 42.25994 | 35.69983 | 34188 ft | 451 kts | 246° |
| 2026-05-07 16:20 | 42.23152 | 35.62463 | 34186 ft | 449 kts | 246° |
| 2026-05-07 16:21 | 42.20317 | 35.54963 | 34185 ft | 449 kts | 246° |
| 2026-05-07 16:21 | 42.17478 | 35.47471 | 34182 ft | 449 kts | 246° |
| 2026-05-07 16:22 | 42.14629 | 35.39985 | 34174 ft | 448 kts | 247° |
| 2026-05-07 16:22 | 42.11789 | 35.32515 | 34170 ft | 448 kts | 248° |
| 2026-05-07 16:23 | 42.08952 | 35.25052 | 34173 ft | 447 kts | 248° |
| 2026-05-07 16:23 | 42.06133 | 35.17648 | 34175 ft | 447 kts | 248° |
| 2026-05-07 16:24 | 42.03217 | 35.10198 | 34157 ft | 449 kts | 242° |
| 2026-05-07 16:24 | 41.99153 | 35.03812 | 34159 ft | 458 kts | 225° |
| 2026-05-07 16:25 | 41.94385 | 34.98119 | 34159 ft | 459 kts | 226° |
| 2026-05-07 16:25 | 41.89593 | 34.92379 | 34144 ft | 459 kts | 226° |
| 2026-05-07 16:26 | 41.84831 | 34.86669 | 34149 ft | 459 kts | 226° |
| 2026-05-07 16:26 | 41.80069 | 34.80982 | 34138 ft | 458 kts | 226° |
| 2026-05-07 16:27 | 41.75298 | 34.75309 | 34121 ft | 458 kts | 226° |
| 2026-05-07 16:27 | 41.70528 | 34.69648 | 34129 ft | 458 kts | 226° |
| 2026-05-07 16:28 | 41.66565 | 34.64942 | 34127 ft | 458 kts | 226° |
| 2026-05-07 16:28 | 41.61802 | 34.59291 | 34128 ft | 458 kts | 226° |
| 2026-05-07 16:29 | 41.57032 | 34.53660 | 34119 ft | 458 kts | 226° |
| 2026-05-07 16:29 | 41.52270 | 34.48026 | 34123 ft | 457 kts | 226° |
| 2026-05-07 16:30 | 41.47519 | 34.42380 | 34125 ft | 457 kts | 226° |
| 2026-05-07 16:30 | 41.42775 | 34.36733 | 34106 ft | 457 kts | 226° |
| 2026-05-07 16:31 | 41.38022 | 34.31098 | 34109 ft | 458 kts | 226° |
| 2026-05-07 16:31 | 41.33249 | 34.25474 | 34117 ft | 458 kts | 226° |
| 2026-05-07 16:32 | 41.28473 | 34.19870 | 34128 ft | 458 kts | 226° |
| 2026-05-07 16:32 | 41.23731 | 34.14317 | 34124 ft | 458 kts | 226° |
| 2026-05-07 16:33 | 41.18953 | 34.08735 | 34123 ft | 457 kts | 226° |
| 2026-05-07 16:33 | 41.14174 | 34.03158 | 34115 ft | 458 kts | 226° |
| 2026-05-07 16:34 | 41.09393 | 33.97593 | 34123 ft | 457 kts | 226° |
| 2026-05-07 16:34 | 41.04606 | 33.92030 | 34128 ft | 457 kts | 226° |
| 2026-05-07 16:35 | 40.99821 | 33.86481 | 34128 ft | 457 kts | 226° |
| 2026-05-07 16:35 | 40.95032 | 33.80936 | 34110 ft | 457 kts | 226° |
| 2026-05-07 16:36 | 40.90231 | 33.75399 | 34128 ft | 458 kts | 226° |
| 2026-05-07 16:36 | 40.85422 | 33.69858 | 34124 ft | 459 kts | 226° |
| 2026-05-07 16:37 | 40.80611 | 33.64321 | 34135 ft | 459 kts | 226° |
| 2026-05-07 16:37 | 40.75801 | 33.58806 | 34135 ft | 458 kts | 226° |
| 2026-05-07 16:38 | 40.70988 | 33.53294 | 34128 ft | 458 kts | 226° |
| 2026-05-07 16:38 | 40.66180 | 33.47781 | 34141 ft | 457 kts | 226° |
| 2026-05-07 16:39 | 40.61376 | 33.42295 | 34134 ft | 457 kts | 226° |
| 2026-05-07 16:39 | 40.56525 | 33.36778 | 34134 ft | 457 kts | 226° |
| 2026-05-07 16:40 | 40.51708 | 33.31305 | 34149 ft | 457 kts | 227° |
| 2026-05-07 16:40 | 40.46897 | 33.25849 | 34124 ft | 457 kts | 227° |
| 2026-05-07 16:41 | 40.42084 | 33.20408 | 34136 ft | 456 kts | 227° |
| 2026-05-07 16:41 | 40.37270 | 33.14969 | 34151 ft | 456 kts | 227° |
| 2026-05-07 16:42 | 40.32427 | 33.09505 | 34126 ft | 456 kts | 227° |
| 2026-05-07 16:42 | 40.27618 | 33.04080 | 34150 ft | 456 kts | 227° |
| 2026-05-07 16:43 | 40.22805 | 32.98667 | 34153 ft | 456 kts | 227° |
| 2026-05-07 16:43 | 40.17980 | 32.93260 | 34138 ft | 456 kts | 227° |
| 2026-05-07 16:44 | 40.13156 | 32.87867 | 34149 ft | 456 kts | 226° |
| 2026-05-07 16:44 | 40.08326 | 32.82490 | 34157 ft | 457 kts | 224° |
| 2026-05-07 16:45 | 40.02808 | 32.78171 | 34153 ft | 466 kts | 212° |
| 2026-05-07 16:45 | 39.97042 | 32.74324 | 34167 ft | 466 kts | 212° |
| 2026-05-07 16:46 | 39.91281 | 32.70456 | 34173 ft | 465 kts | 213° |
| 2026-05-07 16:46 | 39.85529 | 32.66599 | 34177 ft | 465 kts | 212° |
| 2026-05-07 16:47 | 39.79769 | 32.62757 | 34186 ft | 465 kts | 212° |
| 2026-05-07 16:47 | 39.74014 | 32.58927 | 34171 ft | 464 kts | 212° |
| 2026-05-07 16:48 | 39.68269 | 32.55103 | 34167 ft | 464 kts | 212° |
| 2026-05-07 16:48 | 39.62517 | 32.51281 | 34173 ft | 464 kts | 212° |
| 2026-05-07 16:49 | 39.56766 | 32.47468 | 34169 ft | 464 kts | 212° |
| 2026-05-07 16:49 | 39.51007 | 32.43659 | 34176 ft | 464 kts | 212° |
| 2026-05-07 16:50 | 39.45245 | 32.39870 | 34176 ft | 464 kts | 214° |
| 2026-05-07 16:50 | 39.40219 | 32.34937 | 34165 ft | 447 kts | 234° |
| 2026-05-07 16:51 | 39.36788 | 32.28467 | 34150 ft | 429 kts | 252° |
| 2026-05-07 16:51 | 39.34540 | 32.21373 | 34158 ft | 427 kts | 255° |
| 2026-05-07 16:52 | 39.32293 | 32.14265 | 34163 ft | 428 kts | 255° |
| 2026-05-07 16:52 | 39.30037 | 32.07155 | 34150 ft | 428 kts | 255° |
| 2026-05-07 16:53 | 39.27784 | 32.00045 | 34165 ft | 428 kts | 255° |
| 2026-05-07 16:53 | 39.25524 | 31.92937 | 34165 ft | 428 kts | 255° |
| 2026-05-07 16:54 | 39.23263 | 31.85833 | 34168 ft | 428 kts | 255° |
| 2026-05-07 16:54 | 39.20997 | 31.78736 | 34156 ft | 428 kts | 255° |
| 2026-05-07 16:55 | 39.18722 | 31.71648 | 34166 ft | 427 kts | 255° |
| 2026-05-07 16:55 | 39.16448 | 31.64574 | 34192 ft | 427 kts | 255° |
| 2026-05-07 16:56 | 39.14168 | 31.57501 | 34182 ft | 427 kts | 255° |
| 2026-05-07 16:56 | 39.10752 | 31.46917 | 34165 ft | 426 kts | 254° |
| 2026-05-07 16:57 | 39.08472 | 31.39879 | 34182 ft | 425 kts | 254° |
| 2026-05-07 16:57 | 39.06193 | 31.32856 | 34190 ft | 425 kts | 254° |
| 2026-05-07 16:58 | 39.03913 | 31.25856 | 34190 ft | 424 kts | 254° |
| 2026-05-07 16:58 | 39.01626 | 31.18856 | 34184 ft | 424 kts | 254° |
| 2026-05-07 16:59 | 38.99336 | 31.11873 | 34180 ft | 423 kts | 254° |
| 2026-05-07 16:59 | 38.97050 | 31.04906 | 34190 ft | 423 kts | 254° |
| 2026-05-07 17:00 | 38.94779 | 30.97997 | 34190 ft | 422 kts | 254° |
| 2026-05-07 17:00 | 38.92495 | 30.91053 | 34182 ft | 422 kts | 253° |
| 2026-05-07 17:01 | 38.90200 | 30.84113 | 34179 ft | 421 kts | 253° |
| 2026-05-07 17:01 | 38.87896 | 30.77148 | 34176 ft | 421 kts | 253° |
| 2026-05-07 17:02 | 38.85600 | 30.70231 | 34179 ft | 421 kts | 253° |
| 2026-05-07 17:02 | 38.83296 | 30.63335 | 34182 ft | 421 kts | 253° |
| 2026-05-07 17:03 | 38.81192 | 30.57660 | 34180 ft | 429 kts | 244° |
| 2026-05-07 17:03 | 38.79381 | 30.54587 | 34178 ft | 437 kts | 233° |
| 2026-05-07 17:03 | 38.77112 | 30.51929 | 34164 ft | 447 kts | 223° |
| 2026-05-07 17:04 | 38.71890 | 30.47497 | 34168 ft | 450 kts | 220° |
| 2026-05-07 17:04 | 38.66650 | 30.43094 | 34167 ft | 451 kts | 220° |
| 2026-05-07 17:05 | 38.61411 | 30.38679 | 34175 ft | 451 kts | 219° |
| 2026-05-07 17:05 | 38.56169 | 30.34276 | 34195 ft | 451 kts | 219° |
| 2026-05-07 17:06 | 38.50926 | 30.29889 | 34196 ft | 450 kts | 219° |
| 2026-05-07 17:06 | 38.45691 | 30.25517 | 34186 ft | 450 kts | 219° |
| 2026-05-07 17:07 | 38.40454 | 30.21148 | 34192 ft | 449 kts | 219° |
| 2026-05-07 17:07 | 38.35188 | 30.16764 | 34191 ft | 449 kts | 219° |
| 2026-05-07 17:08 | 38.29964 | 30.12425 | 34181 ft | 448 kts | 219° |
| 2026-05-07 17:08 | 38.24740 | 30.08090 | 34185 ft | 448 kts | 218° |
| 2026-05-07 17:09 | 38.19517 | 30.03763 | 34185 ft | 448 kts | 218° |
| 2026-05-07 17:09 | 38.14296 | 29.99449 | 34185 ft | 447 kts | 218° |
| 2026-05-07 17:10 | 38.09085 | 29.95142 | 34192 ft | 447 kts | 218° |
| 2026-05-07 17:10 | 38.03880 | 29.90838 | 34042 ft | 446 kts | 218° |
| 2026-05-07 17:11 | 38.01281 | 29.88695 | 33769 ft | 446 kts | 218° |
| 2026-05-07 17:11 | 37.98672 | 29.86549 | 33499 ft | 447 kts | 218° |
| 2026-05-07 17:11 | 37.96063 | 29.84404 | 33218 ft | 447 kts | 218° |
| 2026-05-07 17:11 | 37.93454 | 29.82259 | 32703 ft | 447 kts | 218° |
| 2026-05-07 17:12 | 37.90859 | 29.80130 | 32171 ft | 443 kts | 217° |
| 2026-05-07 17:12 | 37.88276 | 29.78014 | 31605 ft | 441 kts | 217° |
| 2026-05-07 17:12 | 37.85705 | 29.75909 | 31066 ft | 439 kts | 217° |
| 2026-05-07 17:12 | 37.83148 | 29.73820 | 30496 ft | 437 kts | 217° |
| 2026-05-07 17:13 | 37.80711 | 29.71581 | 29912 ft | 430 kts | 226° |
| 2026-05-07 17:13 | 37.78660 | 29.68892 | 29361 ft | 420 kts | 236° |
| 2026-05-07 17:13 | 37.77026 | 29.65875 | 28837 ft | 411 kts | 244° |
| 2026-05-07 17:13 | 37.75658 | 29.62730 | 28312 ft | 407 kts | 245° |
| 2026-05-07 17:14 | 37.74298 | 29.59607 | 27808 ft | 404 kts | 245° |
| 2026-05-07 17:14 | 37.72948 | 29.56516 | 27293 ft | 401 kts | 245° |
| 2026-05-07 17:14 | 37.71606 | 29.53451 | 26785 ft | 397 kts | 244° |
| 2026-05-07 17:14 | 37.70273 | 29.50408 | 26292 ft | 394 kts | 244° |
| 2026-05-07 17:15 | 37.68950 | 29.47386 | 25799 ft | 392 kts | 244° |
| 2026-05-07 17:15 | 37.67630 | 29.44377 | 25324 ft | 389 kts | 244° |
| 2026-05-07 17:15 | 37.66327 | 29.41403 | 24839 ft | 386 kts | 244° |
| 2026-05-07 17:15 | 37.65031 | 29.38447 | 24393 ft | 383 kts | 244° |
| 2026-05-07 17:16 | 37.63744 | 29.35516 | 23941 ft | 381 kts | 244° |
| 2026-05-07 17:16 | 37.62481 | 29.32640 | 23466 ft | 377 kts | 244° |
| 2026-05-07 17:16 | 37.61218 | 29.29763 | 23027 ft | 373 kts | 244° |
| 2026-05-07 17:16 | 37.59971 | 29.26926 | 22583 ft | 368 kts | 244° |
| 2026-05-07 17:17 | 37.58736 | 29.24118 | 22139 ft | 363 kts | 244° |
| 2026-05-07 17:17 | 37.57492 | 29.21318 | 21708 ft | 360 kts | 244° |
| 2026-05-07 17:17 | 37.56264 | 29.18588 | 21271 ft | 355 kts | 244° |
| 2026-05-07 17:17 | 37.55065 | 29.15938 | 20848 ft | 350 kts | 244° |
| 2026-05-07 17:18 | 37.53863 | 29.13294 | 20413 ft | 347 kts | 244° |
| 2026-05-07 17:18 | 37.52653 | 29.10633 | 19966 ft | 344 kts | 244° |
| 2026-05-07 17:18 | 37.51469 | 29.08020 | 19524 ft | 343 kts | 244° |
| 2026-05-07 17:18 | 37.50289 | 29.05414 | 19086 ft | 342 kts | 244° |
| 2026-05-07 17:19 | 37.49113 | 29.02820 | 18642 ft | 341 kts | 244° |
| 2026-05-07 17:19 | 37.47936 | 29.00222 | 18158 ft | 340 kts | 244° |
| 2026-05-07 17:19 | 37.46769 | 28.97642 | 17712 ft | 338 kts | 244° |
| 2026-05-07 17:19 | 37.45604 | 28.95065 | 17275 ft | 336 kts | 244° |
| 2026-05-07 17:20 | 37.44456 | 28.92529 | 16839 ft | 334 kts | 244° |
| 2026-05-07 17:20 | 37.43307 | 28.89991 | 16421 ft | 333 kts | 244° |
| 2026-05-07 17:20 | 37.42161 | 28.87465 | 15998 ft | 332 kts | 244° |
| 2026-05-07 17:20 | 37.41031 | 28.84978 | 15817 ft | 322 kts | 244° |
| 2026-05-07 17:21 | 37.39932 | 28.82568 | 15683 ft | 313 kts | 244° |
| 2026-05-07 17:21 | 37.38866 | 28.80233 | 15566 ft | 302 kts | 244° |
| 2026-05-07 17:21 | 37.37840 | 28.77983 | 15407 ft | 292 kts | 244° |
| 2026-05-07 17:21 | 37.36849 | 28.75813 | 15221 ft | 286 kts | 244° |
| 2026-05-07 17:22 | 37.35866 | 28.73652 | 15160 ft | 285 kts | 245° |
| 2026-05-07 17:22 | 37.35023 | 28.71404 | 14909 ft | 285 kts | 250° |
| 2026-05-07 17:22 | 37.34212 | 28.69131 | 14535 ft | 285 kts | 250° |
| 2026-05-07 17:22 | 37.33396 | 28.66856 | 14163 ft | 286 kts | 249° |
| 2026-05-07 17:23 | 37.32567 | 28.64555 | 13869 ft | 283 kts | 249° |
| 2026-05-07 17:23 | 37.31750 | 28.62291 | 13466 ft | 284 kts | 249° |
| 2026-05-07 17:23 | 37.30935 | 28.60028 | 13092 ft | 283 kts | 249° |
| 2026-05-07 17:23 | 37.30126 | 28.57784 | 12679 ft | 283 kts | 249° |
| 2026-05-07 17:24 | 37.29319 | 28.55546 | 12402 ft | 280 kts | 249° |
| 2026-05-07 17:24 | 37.28508 | 28.53299 | 12013 ft | 281 kts | 248° |
| 2026-05-07 17:24 | 37.27704 | 28.51079 | 11679 ft | 278 kts | 249° |
| 2026-05-07 17:24 | 37.26908 | 28.48879 | 11401 ft | 275 kts | 248° |
| 2026-05-07 17:25 | 37.26127 | 28.46723 | 11109 ft | 274 kts | 248° |
| 2026-05-07 17:25 | 37.25335 | 28.44544 | 10762 ft | 276 kts | 248° |
| 2026-05-07 17:25 | 37.24537 | 28.42350 | 10409 ft | 275 kts | 248° |
| 2026-05-07 17:25 | 37.23733 | 28.40150 | 10115 ft | 273 kts | 248° |
| 2026-05-07 17:26 | 37.22942 | 28.37983 | 9814 ft | 272 kts | 248° |
| 2026-05-07 17:26 | 37.22155 | 28.35825 | 9519 ft | 270 kts | 248° |
| 2026-05-07 17:26 | 37.21378 | 28.33688 | 9254 ft | 269 kts | 249° |
| 2026-05-07 17:26 | 37.20604 | 28.31557 | 8980 ft | 268 kts | 247° |
| 2026-05-07 17:27 | 37.19828 | 28.29429 | 8708 ft | 268 kts | 248° |
| 2026-05-07 17:27 | 37.19055 | 28.27305 | 8432 ft | 267 kts | 248° |
| 2026-05-07 17:27 | 37.18286 | 28.25192 | 8161 ft | 267 kts | 248° |
| 2026-05-07 17:27 | 37.17515 | 28.23076 | 7898 ft | 267 kts | 247° |
| 2026-05-07 17:28 | 37.16743 | 28.20966 | 7614 ft | 266 kts | 248° |
| 2026-05-07 17:28 | 37.15972 | 28.18861 | 7387 ft | 262 kts | 248° |
| 2026-05-07 17:28 | 37.15233 | 28.16846 | 7321 ft | 248 kts | 247° |
| 2026-05-07 17:28 | 37.14526 | 28.14908 | 7192 ft | 241 kts | 249° |
| 2026-05-07 17:29 | 37.14162 | 28.12915 | 7093 ft | 227 kts | 271° |
| 2026-05-07 17:29 | 37.14370 | 28.11066 | 6913 ft | 209 kts | 290° |
| 2026-05-07 17:29 | 37.14798 | 28.09362 | 6720 ft | 200 kts | 290° |
| 2026-05-07 17:29 | 37.15206 | 28.07687 | 6544 ft | 202 kts | 289° |
| 2026-05-07 17:30 | 37.15591 | 28.06069 | 6356 ft | 203 kts | 289° |
| 2026-05-07 17:30 | 37.15978 | 28.04458 | 6188 ft | 201 kts | 289° |
| 2026-05-07 17:30 | 37.16385 | 28.02777 | 6012 ft | 203 kts | 289° |
| 2026-05-07 17:30 | 37.16795 | 28.01088 | 5846 ft | 202 kts | 289° |
| 2026-05-07 17:31 | 37.17197 | 27.99426 | 5662 ft | 199 kts | 289° |
| 2026-05-07 17:31 | 37.17611 | 27.97716 | 5486 ft | 198 kts | 289° |
| 2026-05-07 17:31 | 37.18013 | 27.96058 | 5317 ft | 199 kts | 289° |
| 2026-05-07 17:31 | 37.18414 | 27.94400 | 5140 ft | 199 kts | 289° |
| 2026-05-07 17:32 | 37.18812 | 27.92752 | 5020 ft | 198 kts | 290° |
| 2026-05-07 17:32 | 37.19209 | 27.91107 | 4779 ft | 196 kts | 289° |
| 2026-05-07 17:32 | 37.19600 | 27.89488 | 4473 ft | 193 kts | 289° |
| 2026-05-07 17:32 | 37.19856 | 27.88423 | 4244 ft | 192 kts | 289° |
| 2026-05-07 17:33 | 37.20373 | 27.86281 | 3820 ft | 189 kts | 289° |
| 2026-05-07 17:33 | 37.20751 | 27.84712 | 3505 ft | 187 kts | 289° |
| 2026-05-07 17:33 | 37.21124 | 27.83159 | 3183 ft | 185 kts | 288° |
| 2026-05-07 17:33 | 37.21495 | 27.81617 | 2871 ft | 184 kts | 288° |
| 2026-05-07 17:34 | 37.21864 | 27.80083 | 2554 ft | 183 kts | 287° |
| 2026-05-07 17:34 | 37.22228 | 27.78568 | 2239 ft | 178 kts | 287° |
| 2026-05-07 17:34 | 37.22461 | 27.77601 | 2047 ft | 173 kts | 286° |
| 2026-05-07 17:34 | 37.22907 | 27.75743 | 1671 ft | 160 kts | 286° |
| 2026-05-07 17:35 | 37.23117 | 27.74865 | 1481 ft | 158 kts | 285° |
| 2026-05-07 17:35 | 37.23431 | 27.73561 | 1215 ft | 154 kts | 286° |
| 2026-05-07 17:35 | 37.23737 | 27.72270 | 957 ft | 154 kts | 286° |
| 2026-05-07 17:35 | 37.24040 | 27.70988 | 684 ft | 153 kts | 286° |
| 2026-05-07 17:36 | 37.24350 | 27.69708 | 420 ft | 153 kts | 285° |
| 2026-05-07 17:36 | 37.24662 | 27.68423 | 140 ft | 154 kts | 285° |
| 2026-05-07 17:36 | 37.24961 | 27.67169 | 31 ft | 132 kts | 285° |
| 2026-05-07 17:36 | 37.25162 | 27.66325 | 29 ft | 75 kts | 287° |
| 2026-05-07 17:37 | 37.25259 | 27.65903 | 29 ft | 31 kts | 279° |
| 2026-05-07 17:37 | 37.25231 | 27.65643 | 29 ft | 27 kts | 257° |
| 2026-05-07 17:37 | 37.25158 | 27.65615 | 30 ft | 11 kts | 122° |
| 2026-05-07 17:37 | 37.25123 | 27.65762 | 30 ft | 27 kts | 107° |
| 2026-05-07 17:38 | 37.25058 | 27.66027 | 30 ft | 33 kts | 107° |
| 2026-05-07 17:38 | 37.24992 | 27.66300 | 30 ft | 32 kts | 107° |
| 2026-05-07 17:38 | 37.24928 | 27.66572 | 28 ft | 33 kts | 107° |
| 2026-05-07 17:38 | 37.24862 | 27.66840 | 28 ft | 32 kts | 107° |
| 2026-05-07 17:39 | 37.24800 | 27.67099 | 30 ft | 30 kts | 107° |
| 2026-05-07 17:39 | 37.24742 | 27.67350 | 32 ft | 29 kts | 106° |
| 2026-05-07 17:39 | 37.24688 | 27.67577 | 33 ft | 21 kts | 107° |
| 2026-05-07 17:39 | 37.24637 | 27.67663 | 32 ft | 11 kts | 168° |
| 2026-05-07 17:40 | 37.24558 | 27.67641 | 31 ft | 12 kts | 197° |
| 2026-05-07 17:40 | 37.24478 | 27.67603 | 30 ft | 12 kts | 197° |
| 2026-05-07 17:40 | 37.24434 | 27.67587 | 30 ft | 0 kts | 197° |